sensor_id;sensor_type;location;lat;lon;timestamp;temperature;humidity
25138;DHT22;13112;50.986;4.354;2023-02-18T00:00:10;11.80;99.90
25138;DHT22;13112;50.986;4.354;2023-02-18T00:02:36;11.80;99.90
25138;DHT22;13112;50.986;4.354;2023-02-18T00:05:02;11.80;99.90
25138;DHT22;13112;50.986;4.354;2023-02-18T00:07:33;11.70;99.90
25138;DHT22;13112;50.986;4.354;2023-02-18T00:09:59;11.80;99.90
25138;DHT22;13112;50.986;4.354;2023-02-18T00:12:25;11.90;99.90
25138;DHT22;13112;50.986;4.354;2023-02-18T00:14:50;11.90;99.90
25138;DHT22;13112;50.986;4.354;2023-02-18T00:17:16;11.80;99.90
25138;DHT22;13112;50.986;4.354;2023-02-18T00:19:42;11.90;99.90
25138;DHT22;13112;50.986;4.354;2023-02-18T00:22:07;11.90;99.90
25138;DHT22;13112;50.986;4.354;2023-02-18T00:24:33;12.00;99.90
25138;DHT22;13112;50.986;4.354;2023-02-18T00:26:59;12.00;99.90
25138;DHT22;13112;50.986;4.354;2023-02-18T00:29:24;11.90;99.90
25138;DHT22;13112;50.986;4.354;2023-02-18T00:31:50;11.90;99.90
25138;DHT22;13112;50.986;4.354;2023-02-18T00:34:16;12.00;99.90
25138;DHT22;13112;50.986;4.354;2023-02-18T00:36:41;11.80;99.90
25138;DHT22;13112;50.986;4.354;2023-02-18T00:39:09;11.90;99.90
25138;DHT22;13112;50.986;4.354;2023-02-18T00:41:35;11.90;99.90
25138;DHT22;13112;50.986;4.354;2023-02-18T00:44:01;12.00;99.90
25138;DHT22;13112;50.986;4.354;2023-02-18T00:46:27;12.00;99.90
25138;DHT22;13112;50.986;4.354;2023-02-18T00:48:53;11.90;99.90
25138;DHT22;13112;50.986;4.354;2023-02-18T00:51:19;11.70;99.90
25138;DHT22;13112;50.986;4.354;2023-02-18T00:53:45;11.70;99.90
25138;DHT22;13112;50.986;4.354;2023-02-18T00:56:11;11.70;99.90
25138;DHT22;13112;50.986;4.354;2023-02-18T00:58:37;11.70;99.90
25138;DHT22;13112;50.986;4.354;2023-02-18T01:01:04;11.70;99.90
25138;DHT22;13112;50.986;4.354;2023-02-18T01:03:30;11.80;99.90
25138;DHT22;13112;50.986;4.354;2023-02-18T01:05:55;11.90;99.90
25138;DHT22;13112;50.986;4.354;2023-02-18T01:08:21;11.80;99.90
25138;DHT22;13112;50.986;4.354;2023-02-18T01:10:49;11.70;99.90
25138;DHT22;13112;50.986;4.354;2023-02-18T01:13:15;11.80;99.90
25138;DHT22;13112;50.986;4.354;2023-02-18T01:15:41;11.70;99.90
25138;DHT22;13112;50.986;4.354;2023-02-18T01:18:08;11.70;99.90
25138;DHT22;13112;50.986;4.354;2023-02-18T01:20:35;11.70;99.90
25138;DHT22;13112;50.986;4.354;2023-02-18T01:23:02;11.80;99.90
25138;DHT22;13112;50.986;4.354;2023-02-18T01:25:28;11.60;99.90
25138;DHT22;13112;50.986;4.354;2023-02-18T01:27:53;11.70;99.90
25138;DHT22;13112;50.986;4.354;2023-02-18T01:30:19;11.40;99.90
25138;DHT22;13112;50.986;4.354;2023-02-18T01:32:46;11.30;99.90
25138;DHT22;13112;50.986;4.354;2023-02-18T01:35:14;11.50;99.90
25138;DHT22;13112;50.986;4.354;2023-02-18T01:37:40;11.50;99.90
25138;DHT22;13112;50.986;4.354;2023-02-18T01:40:08;11.50;99.90
25138;DHT22;13112;50.986;4.354;2023-02-18T01:42:34;11.50;99.90
25138;DHT22;13112;50.986;4.354;2023-02-18T01:51:27;11.40;99.90
25138;DHT22;13112;50.986;4.354;2023-02-18T01:53:58;11.50;99.90
25138;DHT22;13112;50.986;4.354;2023-02-18T01:56:33;11.50;99.90
25138;DHT22;13112;50.986;4.354;2023-02-18T01:59:02;11.40;99.90
25138;DHT22;13112;50.986;4.354;2023-02-18T02:01:30;11.50;99.90
25138;DHT22;13112;50.986;4.354;2023-02-18T02:03:56;11.50;99.90
25138;DHT22;13112;50.986;4.354;2023-02-18T02:06:23;11.30;99.90
25138;DHT22;13112;50.986;4.354;2023-02-18T02:08:52;11.30;99.90
25138;DHT22;13112;50.986;4.354;2023-02-18T02:14:19;11.40;99.90
25138;DHT22;13112;50.986;4.354;2023-02-18T02:45:37;11.10;99.90
25138;DHT22;13112;50.986;4.354;2023-02-18T02:50:49;11.10;99.90
25138;DHT22;13112;50.986;4.354;2023-02-18T02:53:30;11.20;99.90
25138;DHT22;13112;50.986;4.354;2023-02-18T02:55:56;11.30;99.90
25138;DHT22;13112;50.986;4.354;2023-02-18T02:58:22;11.20;99.90
25138;DHT22;13112;50.986;4.354;2023-02-18T03:00:55;11.20;99.90
25138;DHT22;13112;50.986;4.354;2023-02-18T03:03:31;11.00;99.90
25138;DHT22;13112;50.986;4.354;2023-02-18T03:09:12;10.90;99.90
25138;DHT22;13112;50.986;4.354;2023-02-18T03:12:24;11.10;99.90
25138;DHT22;13112;50.986;4.354;2023-02-18T03:15:14;11.10;99.90
25138;DHT22;13112;50.986;4.354;2023-02-18T03:18:03;11.00;99.90
25138;DHT22;13112;50.986;4.354;2023-02-18T03:20:35;10.90;99.90
25138;DHT22;13112;50.986;4.354;2023-02-18T03:23:07;10.90;99.90
25138;DHT22;13112;50.986;4.354;2023-02-18T03:25:35;10.90;99.90
25138;DHT22;13112;50.986;4.354;2023-02-18T03:28:10;10.80;99.90
25138;DHT22;13112;50.986;4.354;2023-02-18T03:30:43;10.80;99.90
25138;DHT22;13112;50.986;4.354;2023-02-18T03:33:15;11.00;99.90
25138;DHT22;13112;50.986;4.354;2023-02-18T03:35:43;10.90;99.90
25138;DHT22;13112;50.986;4.354;2023-02-18T03:38:20;11.00;99.90
25138;DHT22;13112;50.986;4.354;2023-02-18T03:40:48;11.00;99.90
25138;DHT22;13112;50.986;4.354;2023-02-18T03:43:14;11.00;99.90
25138;DHT22;13112;50.986;4.354;2023-02-18T03:45:40;11.00;99.90
25138;DHT22;13112;50.986;4.354;2023-02-18T03:48:06;10.90;99.90
25138;DHT22;13112;50.986;4.354;2023-02-18T03:50:32;11.00;99.90
25138;DHT22;13112;50.986;4.354;2023-02-18T03:52:57;11.00;99.90
25138;DHT22;13112;50.986;4.354;2023-02-18T03:55:23;11.10;99.90
25138;DHT22;13112;50.986;4.354;2023-02-18T03:57:48;11.10;99.90
25138;DHT22;13112;50.986;4.354;2023-02-18T04:00:14;11.10;99.90
25138;DHT22;13112;50.986;4.354;2023-02-18T04:02:40;10.90;99.90
25138;DHT22;13112;50.986;4.354;2023-02-18T04:05:07;11.10;99.90
25138;DHT22;13112;50.986;4.354;2023-02-18T04:07:33;11.10;99.90
25138;DHT22;13112;50.986;4.354;2023-02-18T04:09:58;11.00;99.90
25138;DHT22;13112;50.986;4.354;2023-02-18T04:12:24;10.90;99.90
25138;DHT22;13112;50.986;4.354;2023-02-18T04:14:50;11.00;99.90
25138;DHT22;13112;50.986;4.354;2023-02-18T04:17:15;10.90;99.90
25138;DHT22;13112;50.986;4.354;2023-02-18T04:19:41;11.00;99.90
25138;DHT22;13112;50.986;4.354;2023-02-18T04:22:07;10.90;99.90
25138;DHT22;13112;50.986;4.354;2023-02-18T04:24:32;10.90;99.90
25138;DHT22;13112;50.986;4.354;2023-02-18T04:26:58;10.90;99.90
25138;DHT22;13112;50.986;4.354;2023-02-18T04:29:24;10.90;99.90
25138;DHT22;13112;50.986;4.354;2023-02-18T04:31:49;11.00;99.90
25138;DHT22;13112;50.986;4.354;2023-02-18T04:34:15;10.90;99.90
25138;DHT22;13112;50.986;4.354;2023-02-18T04:36:40;11.00;99.90
25138;DHT22;13112;50.986;4.354;2023-02-18T04:39:06;10.80;99.90
25138;DHT22;13112;50.986;4.354;2023-02-18T04:41:32;10.80;99.90
25138;DHT22;13112;50.986;4.354;2023-02-18T04:43:57;10.80;99.90
25138;DHT22;13112;50.986;4.354;2023-02-18T04:46:24;10.80;99.90
25138;DHT22;13112;50.986;4.354;2023-02-18T04:48:49;10.90;99.90
25138;DHT22;13112;50.986;4.354;2023-02-18T04:51:15;10.90;99.90
25138;DHT22;13112;50.986;4.354;2023-02-18T04:53:41;11.00;99.90
25138;DHT22;13112;50.986;4.354;2023-02-18T04:56:07;10.90;99.90
25138;DHT22;13112;50.986;4.354;2023-02-18T04:58:33;10.90;99.90
25138;DHT22;13112;50.986;4.354;2023-02-18T05:01:02;10.90;99.90
25138;DHT22;13112;50.986;4.354;2023-02-18T05:03:29;10.90;99.90
25138;DHT22;13112;50.986;4.354;2023-02-18T05:05:55;10.90;99.90
25138;DHT22;13112;50.986;4.354;2023-02-18T05:08:21;10.90;99.90
25138;DHT22;13112;50.986;4.354;2023-02-18T05:10:47;10.90;99.90
25138;DHT22;13112;50.986;4.354;2023-02-18T05:13:13;11.10;99.90
25138;DHT22;13112;50.986;4.354;2023-02-18T05:15:38;11.00;99.90
25138;DHT22;13112;50.986;4.354;2023-02-18T05:18:04;11.00;99.90
25138;DHT22;13112;50.986;4.354;2023-02-18T05:20:30;11.00;99.90
25138;DHT22;13112;50.986;4.354;2023-02-18T05:22:55;10.90;99.90
25138;DHT22;13112;50.986;4.354;2023-02-18T05:25:21;10.90;99.90
25138;DHT22;13112;50.986;4.354;2023-02-18T05:27:47;10.90;99.90
25138;DHT22;13112;50.986;4.354;2023-02-18T05:30:12;10.90;99.90
25138;DHT22;13112;50.986;4.354;2023-02-18T05:32:38;10.90;99.90
25138;DHT22;13112;50.986;4.354;2023-02-18T05:35:04;11.00;99.90
25138;DHT22;13112;50.986;4.354;2023-02-18T05:37:30;10.80;99.90
25138;DHT22;13112;50.986;4.354;2023-02-18T05:39:56;10.80;99.90
25138;DHT22;13112;50.986;4.354;2023-02-18T05:42:21;10.70;99.90
25138;DHT22;13112;50.986;4.354;2023-02-18T05:44:48;10.60;99.90
25138;DHT22;13112;50.986;4.354;2023-02-18T05:47:14;10.60;99.90
25138;DHT22;13112;50.986;4.354;2023-02-18T05:49:40;10.60;99.90
25138;DHT22;13112;50.986;4.354;2023-02-18T05:52:07;10.50;99.90
25138;DHT22;13112;50.986;4.354;2023-02-18T05:54:34;10.50;99.90
25138;DHT22;13112;50.986;4.354;2023-02-18T05:57:00;10.50;99.90
25138;DHT22;13112;50.986;4.354;2023-02-18T05:59:26;10.40;99.90
25138;DHT22;13112;50.986;4.354;2023-02-18T06:01:52;10.40;99.90
25138;DHT22;13112;50.986;4.354;2023-02-18T06:04:18;10.40;99.90
25138;DHT22;13112;50.986;4.354;2023-02-18T06:06:43;10.40;99.90
25138;DHT22;13112;50.986;4.354;2023-02-18T06:09:09;10.40;99.90
25138;DHT22;13112;50.986;4.354;2023-02-18T06:11:35;10.40;99.90
25138;DHT22;13112;50.986;4.354;2023-02-18T06:14:01;10.30;99.90
25138;DHT22;13112;50.986;4.354;2023-02-18T06:16:27;10.30;99.90
25138;DHT22;13112;50.986;4.354;2023-02-18T06:18:53;10.40;99.90
25138;DHT22;13112;50.986;4.354;2023-02-18T06:21:19;10.40;99.90
25138;DHT22;13112;50.986;4.354;2023-02-18T06:23:46;10.40;99.90
25138;DHT22;13112;50.986;4.354;2023-02-18T06:26:11;10.40;99.90
25138;DHT22;13112;50.986;4.354;2023-02-18T06:28:37;10.40;99.90
25138;DHT22;13112;50.986;4.354;2023-02-18T06:31:03;10.40;99.90
25138;DHT22;13112;50.986;4.354;2023-02-18T06:33:29;10.40;99.90
25138;DHT22;13112;50.986;4.354;2023-02-18T06:35:59;10.50;99.90
25138;DHT22;13112;50.986;4.354;2023-02-18T06:38:25;10.50;99.90
25138;DHT22;13112;50.986;4.354;2023-02-18T06:40:51;10.60;99.90
25138;DHT22;13112;50.986;4.354;2023-02-18T06:43:17;10.60;99.90
25138;DHT22;13112;50.986;4.354;2023-02-18T06:45:43;10.50;99.90
25138;DHT22;13112;50.986;4.354;2023-02-18T06:48:09;10.60;99.90
25138;DHT22;13112;50.986;4.354;2023-02-18T06:50:35;10.60;99.90
25138;DHT22;13112;50.986;4.354;2023-02-18T06:53:00;10.60;99.90
25138;DHT22;13112;50.986;4.354;2023-02-18T06:55:26;10.60;99.90
25138;DHT22;13112;50.986;4.354;2023-02-18T06:57:52;10.60;99.90
25138;DHT22;13112;50.986;4.354;2023-02-18T07:00:17;10.60;99.90
25138;DHT22;13112;50.986;4.354;2023-02-18T07:02:43;10.50;99.90
25138;DHT22;13112;50.986;4.354;2023-02-18T07:05:09;10.60;99.90
25138;DHT22;13112;50.986;4.354;2023-02-18T07:07:34;10.70;99.90
25138;DHT22;13112;50.986;4.354;2023-02-18T07:10:00;10.60;99.90
25138;DHT22;13112;50.986;4.354;2023-02-18T07:12:26;10.60;99.90
25138;DHT22;13112;50.986;4.354;2023-02-18T07:14:52;10.60;99.90
25138;DHT22;13112;50.986;4.354;2023-02-18T07:17:18;10.50;99.90
25138;DHT22;13112;50.986;4.354;2023-02-18T07:19:43;10.60;99.90
25138;DHT22;13112;50.986;4.354;2023-02-18T07:22:09;10.50;99.90
25138;DHT22;13112;50.986;4.354;2023-02-18T07:24:35;10.60;99.90
25138;DHT22;13112;50.986;4.354;2023-02-18T07:27:01;10.70;99.90
25138;DHT22;13112;50.986;4.354;2023-02-18T07:29:27;10.70;99.90
25138;DHT22;13112;50.986;4.354;2023-02-18T07:31:52;10.70;99.90
25138;DHT22;13112;50.986;4.354;2023-02-18T07:34:19;10.80;99.90
25138;DHT22;13112;50.986;4.354;2023-02-18T07:36:44;10.80;99.90
25138;DHT22;13112;50.986;4.354;2023-02-18T07:39:10;10.90;99.90
25138;DHT22;13112;50.986;4.354;2023-02-18T07:41:36;10.90;99.90
25138;DHT22;13112;50.986;4.354;2023-02-18T07:44:01;10.90;99.90
25138;DHT22;13112;50.986;4.354;2023-02-18T07:46:27;10.90;99.90
25138;DHT22;13112;50.986;4.354;2023-02-18T07:48:53;10.90;99.90
25138;DHT22;13112;50.986;4.354;2023-02-18T07:51:19;11.10;99.90
25138;DHT22;13112;50.986;4.354;2023-02-18T07:53:44;11.00;99.90
25138;DHT22;13112;50.986;4.354;2023-02-18T07:56:10;11.10;99.90
25138;DHT22;13112;50.986;4.354;2023-02-18T07:58:37;11.00;99.90
25138;DHT22;13112;50.986;4.354;2023-02-18T08:01:09;11.00;99.90
25138;DHT22;13112;50.986;4.354;2023-02-18T08:03:35;11.10;99.90
25138;DHT22;13112;50.986;4.354;2023-02-18T08:06:03;11.10;99.90
25138;DHT22;13112;50.986;4.354;2023-02-18T08:08:30;11.10;99.90
25138;DHT22;13112;50.986;4.354;2023-02-18T08:10:58;11.30;99.90
25138;DHT22;13112;50.986;4.354;2023-02-18T08:13:30;11.30;99.90
25138;DHT22;13112;50.986;4.354;2023-02-18T08:15:56;11.40;99.90
25138;DHT22;13112;50.986;4.354;2023-02-18T08:18:26;11.20;99.90
25138;DHT22;13112;50.986;4.354;2023-02-18T08:20:53;11.30;99.90
25138;DHT22;13112;50.986;4.354;2023-02-18T08:23:20;11.30;99.90
25138;DHT22;13112;50.986;4.354;2023-02-18T08:25:48;11.40;99.90
25138;DHT22;13112;50.986;4.354;2023-02-18T08:28:15;11.40;99.90
25138;DHT22;13112;50.986;4.354;2023-02-18T08:30:48;11.40;99.90
25138;DHT22;13112;50.986;4.354;2023-02-18T08:33:15;11.50;99.90
25138;DHT22;13112;50.986;4.354;2023-02-18T08:35:41;11.50;99.90
25138;DHT22;13112;50.986;4.354;2023-02-18T08:38:07;11.50;99.90
25138;DHT22;13112;50.986;4.354;2023-02-18T08:40:33;11.50;99.90
25138;DHT22;13112;50.986;4.354;2023-02-18T08:42:58;11.60;99.90
25138;DHT22;13112;50.986;4.354;2023-02-18T08:45:24;11.70;99.90
25138;DHT22;13112;50.986;4.354;2023-02-18T08:47:50;11.70;99.90
25138;DHT22;13112;50.986;4.354;2023-02-18T08:50:16;11.60;99.90
25138;DHT22;13112;50.986;4.354;2023-02-18T08:52:42;11.50;99.90
25138;DHT22;13112;50.986;4.354;2023-02-18T08:55:07;11.50;99.90
25138;DHT22;13112;50.986;4.354;2023-02-18T08:57:33;11.60;99.90
25138;DHT22;13112;50.986;4.354;2023-02-18T08:59:59;11.70;99.90
25138;DHT22;13112;50.986;4.354;2023-02-18T09:02:24;11.80;99.90
25138;DHT22;13112;50.986;4.354;2023-02-18T09:04:50;11.90;99.90
25138;DHT22;13112;50.986;4.354;2023-02-18T09:07:17;11.90;99.90
25138;DHT22;13112;50.986;4.354;2023-02-18T09:09:42;12.00;99.90
25138;DHT22;13112;50.986;4.354;2023-02-18T09:12:08;11.90;99.90
25138;DHT22;13112;50.986;4.354;2023-02-18T09:14:34;11.90;99.90
25138;DHT22;13112;50.986;4.354;2023-02-18T09:16:59;11.90;99.90
25138;DHT22;13112;50.986;4.354;2023-02-18T09:19:25;11.80;99.90
25138;DHT22;13112;50.986;4.354;2023-02-18T09:21:51;11.80;99.90
25138;DHT22;13112;50.986;4.354;2023-02-18T09:24:19;11.80;99.90
25138;DHT22;13112;50.986;4.354;2023-02-18T09:26:44;11.90;99.90
25138;DHT22;13112;50.986;4.354;2023-02-18T09:29:10;12.10;99.90
25138;DHT22;13112;50.986;4.354;2023-02-18T09:31:36;12.00;99.90
25138;DHT22;13112;50.986;4.354;2023-02-18T09:34:04;11.90;99.90
25138;DHT22;13112;50.986;4.354;2023-02-18T09:36:30;11.90;99.90
25138;DHT22;13112;50.986;4.354;2023-02-18T09:38:57;12.10;99.90
25138;DHT22;13112;50.986;4.354;2023-02-18T09:44:02;12.50;99.90
25138;DHT22;13112;50.986;4.354;2023-02-18T09:46:37;12.40;99.90
25138;DHT22;13112;50.986;4.354;2023-02-18T09:49:07;12.40;99.90
25138;DHT22;13112;50.986;4.354;2023-02-18T09:51:37;12.20;99.90
25138;DHT22;13112;50.986;4.354;2023-02-18T09:54:03;12.30;99.90
25138;DHT22;13112;50.986;4.354;2023-02-18T09:56:32;12.30;99.90
25138;DHT22;13112;50.986;4.354;2023-02-18T09:59:04;12.40;99.90
25138;DHT22;13112;50.986;4.354;2023-02-18T10:01:36;12.30;99.90
25138;DHT22;13112;50.986;4.354;2023-02-18T10:04:09;12.10;99.90
25138;DHT22;13112;50.986;4.354;2023-02-18T10:06:37;12.10;99.90
25138;DHT22;13112;50.986;4.354;2023-02-18T10:11:51;12.00;99.90
25138;DHT22;13112;50.986;4.354;2023-02-18T10:14:17;12.20;99.90
25138;DHT22;13112;50.986;4.354;2023-02-18T10:16:44;12.20;99.90
25138;DHT22;13112;50.986;4.354;2023-02-18T10:19:36;12.20;99.90
25138;DHT22;13112;50.986;4.354;2023-02-18T10:22:05;12.30;99.90
25138;DHT22;13112;50.986;4.354;2023-02-18T10:27:13;12.30;99.90
25138;DHT22;13112;50.986;4.354;2023-02-18T10:29:41;12.10;99.90
25138;DHT22;13112;50.986;4.354;2023-02-18T10:32:26;12.10;99.90
25138;DHT22;13112;50.986;4.354;2023-02-18T10:35:01;12.20;99.90
25138;DHT22;13112;50.986;4.354;2023-02-18T10:40:17;12.30;99.90
25138;DHT22;13112;50.986;4.354;2023-02-18T10:46:04;12.60;99.90
25138;DHT22;13112;50.986;4.354;2023-02-18T10:48:54;12.50;99.90
25138;DHT22;13112;50.986;4.354;2023-02-18T10:51:27;12.50;99.90
25138;DHT22;13112;50.986;4.354;2023-02-18T10:53:54;12.50;99.90
25138;DHT22;13112;50.986;4.354;2023-02-18T10:56:41;12.50;99.90
25138;DHT22;13112;50.986;4.354;2023-02-18T10:59:23;12.50;99.90
25138;DHT22;13112;50.986;4.354;2023-02-18T11:02:14;12.50;99.90
25138;DHT22;13112;50.986;4.354;2023-02-18T11:04:43;12.60;99.90
25138;DHT22;13112;50.986;4.354;2023-02-18T11:07:18;12.60;99.90
25138;DHT22;13112;50.986;4.354;2023-02-18T11:09:48;12.50;99.90
25138;DHT22;13112;50.986;4.354;2023-02-18T11:14:48;12.40;99.90
25138;DHT22;13112;50.986;4.354;2023-02-18T11:17:21;12.40;99.90
25138;DHT22;13112;50.986;4.354;2023-02-18T11:19:55;12.40;99.90
25138;DHT22;13112;50.986;4.354;2023-02-18T11:22:28;12.40;99.90
25138;DHT22;13112;50.986;4.354;2023-02-18T11:24:59;12.40;99.90
25138;DHT22;13112;50.986;4.354;2023-02-18T11:27:41;12.50;99.90
25138;DHT22;13112;50.986;4.354;2023-02-18T11:30:41;12.50;99.90
25138;DHT22;13112;50.986;4.354;2023-02-18T11:36:03;12.40;99.90
25138;DHT22;13112;50.986;4.354;2023-02-18T11:38:45;12.50;99.90
25138;DHT22;13112;50.986;4.354;2023-02-18T11:41:44;12.60;99.90
25138;DHT22;13112;50.986;4.354;2023-02-18T11:47:01;12.80;99.90
25138;DHT22;13112;50.986;4.354;2023-02-18T11:49:28;12.80;99.90
25138;DHT22;13112;50.986;4.354;2023-02-18T11:51:54;12.80;99.90
25138;DHT22;13112;50.986;4.354;2023-02-18T11:54:29;12.60;99.90
25138;DHT22;13112;50.986;4.354;2023-02-18T11:56:57;12.50;99.90
25138;DHT22;13112;50.986;4.354;2023-02-18T11:59:23;12.70;99.90
25138;DHT22;13112;50.986;4.354;2023-02-18T12:02:25;12.80;99.90
25138;DHT22;13112;50.986;4.354;2023-02-18T12:07:27;12.80;99.90
25138;DHT22;13112;50.986;4.354;2023-02-18T12:10:03;12.80;99.90
25138;DHT22;13112;50.986;4.354;2023-02-18T12:12:34;12.80;99.90
25138;DHT22;13112;50.986;4.354;2023-02-18T12:15:01;12.90;99.90
25138;DHT22;13112;50.986;4.354;2023-02-18T12:20:17;12.90;99.90
25138;DHT22;13112;50.986;4.354;2023-02-18T12:28:25;13.00;99.90
25138;DHT22;13112;50.986;4.354;2023-02-18T12:31:01;13.00;99.90
25138;DHT22;13112;50.986;4.354;2023-02-18T12:39:24;13.00;99.90
25138;DHT22;13112;50.986;4.354;2023-02-18T13:08:49;12.30;99.90
25138;DHT22;13112;50.986;4.354;2023-02-18T13:14:07;12.10;99.90
25138;DHT22;13112;50.986;4.354;2023-02-18T13:16:34;12.30;99.90
25138;DHT22;13112;50.986;4.354;2023-02-18T13:21:41;12.40;99.90
25138;DHT22;13112;50.986;4.354;2023-02-18T13:24:15;12.40;99.90
25138;DHT22;13112;50.986;4.354;2023-02-18T13:26:45;12.50;99.90
25138;DHT22;13112;50.986;4.354;2023-02-18T13:29:33;12.50;99.90
25138;DHT22;13112;50.986;4.354;2023-02-18T13:35:03;12.40;99.90
25138;DHT22;13112;50.986;4.354;2023-02-18T13:40:41;12.60;99.90
25138;DHT22;13112;50.986;4.354;2023-02-18T13:48:30;12.60;99.90
25138;DHT22;13112;50.986;4.354;2023-02-18T13:51:05;12.60;99.90
25138;DHT22;13112;50.986;4.354;2023-02-18T13:53:35;12.50;99.90
25138;DHT22;13112;50.986;4.354;2023-02-18T13:56:21;12.50;99.90
25138;DHT22;13112;50.986;4.354;2023-02-18T13:58:51;12.50;99.90
25138;DHT22;13112;50.986;4.354;2023-02-18T14:01:30;12.60;99.90
25138;DHT22;13112;50.986;4.354;2023-02-18T14:04:01;12.50;99.90
25138;DHT22;13112;50.986;4.354;2023-02-18T14:06:33;12.60;99.90
25138;DHT22;13112;50.986;4.354;2023-02-18T14:11:41;12.50;99.90
25138;DHT22;13112;50.986;4.354;2023-02-18T14:22:49;12.40;99.90
25138;DHT22;13112;50.986;4.354;2023-02-18T14:25:24;12.50;99.90
25138;DHT22;13112;50.986;4.354;2023-02-18T14:28:02;12.60;99.90
25138;DHT22;13112;50.986;4.354;2023-02-18T14:30:36;12.60;99.90
25138;DHT22;13112;50.986;4.354;2023-02-18T14:33:03;12.60;99.90
25138;DHT22;13112;50.986;4.354;2023-02-18T14:41:11;12.50;99.90
25138;DHT22;13112;50.986;4.354;2023-02-18T14:51:55;12.20;99.90
25138;DHT22;13112;50.986;4.354;2023-02-18T14:54:24;12.20;99.90
25138;DHT22;13112;50.986;4.354;2023-02-18T14:57:00;12.30;99.90
25138;DHT22;13112;50.986;4.354;2023-02-18T14:59:33;12.40;99.90
25138;DHT22;13112;50.986;4.354;2023-02-18T15:01:59;12.20;99.90
25138;DHT22;13112;50.986;4.354;2023-02-18T15:04:25;12.20;99.90
25138;DHT22;13112;50.986;4.354;2023-02-18T15:07:04;12.20;99.90
25138;DHT22;13112;50.986;4.354;2023-02-18T15:09:34;12.20;99.90
25138;DHT22;13112;50.986;4.354;2023-02-18T15:12:04;12.10;99.90
25138;DHT22;13112;50.986;4.354;2023-02-18T15:14:32;12.10;99.90
25138;DHT22;13112;50.986;4.354;2023-02-18T15:16:59;12.20;99.90
25138;DHT22;13112;50.986;4.354;2023-02-18T15:19:30;12.30;99.90
25138;DHT22;13112;50.986;4.354;2023-02-18T15:21:59;12.20;99.90
25138;DHT22;13112;50.986;4.354;2023-02-18T15:24:32;12.10;99.90
25138;DHT22;13112;50.986;4.354;2023-02-18T15:27:10;12.10;99.90
25138;DHT22;13112;50.986;4.354;2023-02-18T15:29:37;12.00;99.90
25138;DHT22;13112;50.986;4.354;2023-02-18T15:32:20;12.10;99.90
25138;DHT22;13112;50.986;4.354;2023-02-18T15:35:01;12.10;99.90
25138;DHT22;13112;50.986;4.354;2023-02-18T15:37:28;12.20;99.90
25138;DHT22;13112;50.986;4.354;2023-02-18T15:39:54;12.20;99.90
25138;DHT22;13112;50.986;4.354;2023-02-18T15:42:33;12.20;99.90
25138;DHT22;13112;50.986;4.354;2023-02-18T15:45:18;12.30;99.90
25138;DHT22;13112;50.986;4.354;2023-02-18T15:47:49;12.30;99.90
25138;DHT22;13112;50.986;4.354;2023-02-18T15:50:29;12.40;99.90
25138;DHT22;13112;50.986;4.354;2023-02-18T15:52:58;12.40;99.90
25138;DHT22;13112;50.986;4.354;2023-02-18T15:55:36;12.40;99.90
25138;DHT22;13112;50.986;4.354;2023-02-18T15:58:27;12.40;99.90
25138;DHT22;13112;50.986;4.354;2023-02-18T16:00:59;12.30;99.90
25138;DHT22;13112;50.986;4.354;2023-02-18T16:03:30;12.30;99.90
25138;DHT22;13112;50.986;4.354;2023-02-18T16:06:16;12.20;99.90
25138;DHT22;13112;50.986;4.354;2023-02-18T16:09:07;12.20;99.90
25138;DHT22;13112;50.986;4.354;2023-02-18T16:11:46;12.20;99.90
25138;DHT22;13112;50.986;4.354;2023-02-18T16:19:55;12.20;99.90
25138;DHT22;13112;50.986;4.354;2023-02-18T16:25:00;12.20;99.90
25138;DHT22;13112;50.986;4.354;2023-02-18T16:27:32;12.20;99.90
25138;DHT22;13112;50.986;4.354;2023-02-18T16:30:12;12.20;99.90
25138;DHT22;13112;50.986;4.354;2023-02-18T16:32:39;12.20;99.90
25138;DHT22;13112;50.986;4.354;2023-02-18T16:35:05;12.30;99.90
25138;DHT22;13112;50.986;4.354;2023-02-18T16:37:30;12.20;99.90
25138;DHT22;13112;50.986;4.354;2023-02-18T16:40:04;12.20;99.90
25138;DHT22;13112;50.986;4.354;2023-02-18T16:42:29;12.20;99.90
25138;DHT22;13112;50.986;4.354;2023-02-18T16:44:55;12.10;99.90
25138;DHT22;13112;50.986;4.354;2023-02-18T16:47:21;12.10;99.90
25138;DHT22;13112;50.986;4.354;2023-02-18T16:49:48;12.20;99.90
25138;DHT22;13112;50.986;4.354;2023-02-18T16:52:18;12.20;99.90
25138;DHT22;13112;50.986;4.354;2023-02-18T16:54:44;12.20;99.90
25138;DHT22;13112;50.986;4.354;2023-02-18T16:57:12;12.40;99.90
25138;DHT22;13112;50.986;4.354;2023-02-18T16:59:38;12.20;99.90
25138;DHT22;13112;50.986;4.354;2023-02-18T17:02:03;12.10;99.90
25138;DHT22;13112;50.986;4.354;2023-02-18T17:04:29;12.10;99.90
25138;DHT22;13112;50.986;4.354;2023-02-18T17:06:54;12.00;99.90
25138;DHT22;13112;50.986;4.354;2023-02-18T17:09:22;11.90;99.90
25138;DHT22;13112;50.986;4.354;2023-02-18T17:11:53;11.90;99.90
25138;DHT22;13112;50.986;4.354;2023-02-18T17:14:20;11.90;99.90
25138;DHT22;13112;50.986;4.354;2023-02-18T17:16:47;12.00;99.90
25138;DHT22;13112;50.986;4.354;2023-02-18T17:19:13;12.10;99.90
25138;DHT22;13112;50.986;4.354;2023-02-18T17:21:39;12.00;99.90
25138;DHT22;13112;50.986;4.354;2023-02-18T17:24:05;12.00;99.90
25138;DHT22;13112;50.986;4.354;2023-02-18T17:26:31;11.90;99.90
25138;DHT22;13112;50.986;4.354;2023-02-18T17:28:58;11.90;99.90
25138;DHT22;13112;50.986;4.354;2023-02-18T17:31:33;11.90;99.90
25138;DHT22;13112;50.986;4.354;2023-02-18T17:34:02;11.90;99.90
25138;DHT22;13112;50.986;4.354;2023-02-18T17:36:29;11.90;99.90
25138;DHT22;13112;50.986;4.354;2023-02-18T17:38:55;11.90;99.90
25138;DHT22;13112;50.986;4.354;2023-02-18T17:41:21;11.90;99.90
25138;DHT22;13112;50.986;4.354;2023-02-18T17:43:47;11.90;99.90
25138;DHT22;13112;50.986;4.354;2023-02-18T17:46:15;12.00;99.90
25138;DHT22;13112;50.986;4.354;2023-02-18T17:48:42;11.90;99.90
25138;DHT22;13112;50.986;4.354;2023-02-18T17:51:21;12.00;99.90
25138;DHT22;13112;50.986;4.354;2023-02-18T17:53:47;12.00;99.90
25138;DHT22;13112;50.986;4.354;2023-02-18T17:56:12;12.10;99.90
25138;DHT22;13112;50.986;4.354;2023-02-18T17:58:38;11.90;99.90
25138;DHT22;13112;50.986;4.354;2023-02-18T18:01:04;12.00;99.90
25138;DHT22;13112;50.986;4.354;2023-02-18T18:03:30;11.90;99.90
25138;DHT22;13112;50.986;4.354;2023-02-18T18:05:55;12.00;99.90
25138;DHT22;13112;50.986;4.354;2023-02-18T18:08:22;11.90;99.90
25138;DHT22;13112;50.986;4.354;2023-02-18T18:10:51;11.80;99.90
25138;DHT22;13112;50.986;4.354;2023-02-18T18:13:20;11.80;99.90
25138;DHT22;13112;50.986;4.354;2023-02-18T18:15:46;11.80;99.90
25138;DHT22;13112;50.986;4.354;2023-02-18T18:18:13;11.80;99.90
25138;DHT22;13112;50.986;4.354;2023-02-18T18:20:42;11.90;99.90